Latest Coastal Weather Observations for Legendre Island

IDW60701

Issued at 1:15 pm WST Wednesday 30 July 2014 (issued every 10 minutes, with the page automatically refreshed every 10 minutes)

About coastal observations | Map of coastal stations | Coastal observations for WA | Marine services | Other Formats
Station Details ID: 004095 Name: LEGENDRE ISLAND Lat: -20.36 Lon: 116.84 Height: 29.0 m
Data from the previous 72 hours. | See also: Recent months for locations in Western Australia
Date/Time
WST
Temp

°C
Wind Pressure Rain
since 9am
mm
Weather Cloud Vis
km
Sea
Height
m
Swell
Dir
 
Speed
knots
Gust
knots
hPa Trend Height
m
Period
s
Dir
30/01:00pm 25.0 E 10 12 1017.6 - - - - - - - - -
30/12:30pm 25.0 E 11 12 1018.1 - - - - - - - - -
30/12:00pm 24.9 E 12 13 1018.4 - - - - - - - - -
30/11:30am 24.8 E 12 14 1018.8 - - - - - - - - -
30/11:00am 25.1 E 11 13 1018.9 - - - - - - - - -
30/10:30am 24.9 E 12 15 1019.4 - - - - - - - - -
30/10:00am 25.0 E 13 16 1019.1 - - - - - - - - -
30/09:30am 24.5 ESE 12 14 1019.2 - - - - - - - - -
30/09:00am 24.2 ESE 12 14 1018.9 - - - - - - - - -
30/08:30am 23.7 ESE 10 13 1018.8 - - - - - - - - -
30/08:00am 22.8 SE 12 14 1018.6 - - - - - - - - -
30/07:30am 21.8 SE 9 14 1018.5 - - - - - - - - -
30/07:00am 19.8 SE 14 16 1018.0 - - - - - - - - -
30/06:30am 20.0 SSE 12 14 1018.0 - - - - - - - - -
30/06:00am 19.5 SSE 10 11 1017.8 - - - - - - - - -
30/05:30am 20.0 SSE 11 13 1017.5 - - - - - - - - -
30/05:00am 21.3 SE 5 6 1017.4 - - - - - - - - -
30/04:30am 19.9 S 6 9 1017.3 - - - - - - - - -
30/04:00am 20.7 S 10 11 1017.0 - - - - - - - - -
30/03:30am 20.3 S 7 8 1017.2 - - - - - - - - -
30/03:00am 20.3 S 8 10 1017.0 - - - - - - - - -
30/02:30am 20.5 S 10 11 1017.1 - - - - - - - - -
30/02:00am 20.5 S 12 13 1017.3 - - - - - - - - -
30/01:30am 20.0 S 9 10 1017.6 - - - - - - - - -
30/01:00am 20.3 S 7 7 1017.7 - - - - - - - - -
30/12:30am 21.8 ESE 4 7 1018.0 - - - - - - - - -
30/12:00am 21.9 ESE 7 7 1017.9 - - - - - - - - -
 
Date/Time
WST
Temp

°C
Wind Pressure Rain
since 9am
mm
Weather Cloud Vis
km
Sea
Height
m
Swell
Dir
 
Speed
knots
Gust
knots
hPa Trend Height
m
Period
s
Dir
29/11:30pm 21.5 ESE 7 8 1018.0 - - - - - - - - -
29/11:00pm 23.0 E 6 6 1018.0 - - - - - - - - -
29/10:30pm 23.3 ESE 6 7 1018.1 - - - - - - - - -
29/10:00pm 23.6 NE 4 4 1018.2 - - - - - - - - -
29/09:30pm 23.6 ENE 6 6 1018.4 - - - - - - - - -
29/09:00pm 23.6 ENE 4 5 1018.2 - - - - - - - - -
29/08:30pm 23.6 ENE 5 6 1018.2 - - - - - - - - -
29/08:00pm 23.7 ENE 5 7 1017.8 - - - - - - - - -
29/07:30pm 24.1 ENE 8 9 1017.9 - - - - - - - - -
29/07:00pm 23.2 NE 4 5 1017.6 - - - - - - - - -
29/06:30pm 23.9 E 7 8 1017.3 - - - - - - - - -
29/06:00pm 25.4 ESE 12 15 1016.7 - - - - - - - - -
29/05:30pm 24.4 E 11 12 1017.0 - - - - - - - - -
29/05:00pm 24.5 E 11 12 1016.8 - - - - - - - - -
29/04:30pm 24.7 E 7 8 1017.1 - - - - - - - - -
29/04:00pm 24.6 E 5 6 1017.0 - - - - - - - - -
29/03:30pm 25.0 E 6 7 1017.3 - - - - - - - - -
29/03:00pm 25.0 ENE 7 8 1017.3 - - - - - - - - -
29/02:30pm 25.9 ENE 7 8 1017.4 - - - - - - - - -
29/02:00pm 25.5 ENE 8 9 1017.5 - - - - - - - - -
29/01:30pm 25.5 ENE 10 12 1017.9 - - - - - - - - -
29/01:00pm 25.1 ENE 11 12 1018.1 - - - - - - - - -
29/12:30pm 25.1 ENE 10 11 1018.7 - - - - - - - - -
29/12:00pm 25.3 E 10 12 1018.7 - - - - - - - - -
29/11:30am 24.9 E 12 13 1019.2 - - - - - - - - -
29/11:00am 24.3 E 12 13 1019.2 - - - - - - - - -
29/10:30am 24.2 E 13 15 1019.4 - - - - - - - - -
29/10:00am 24.1 E 12 14 1019.2 - - - - - - - - -
29/09:30am 23.8 E 11 13 1019.4 - - - - - - - - -
29/09:00am 24.4 E 12 14 1019.1 - - - - - - - - -
29/08:30am 24.1 SE 12 17 1018.6 - - - - - - - - -
29/08:00am 23.3 SE 13 15 1018.0 - - - - - - - - -
29/07:30am 21.7 SSE 13 15 1017.7 - - - - - - - - -
29/07:00am 19.8 SSE 12 15 1017.3 - - - - - - - - -
29/06:30am 19.4 SE 11 14 1017.4 - - - - - - - - -
29/06:00am 20.0 SE 9 12 1017.1 - - - - - - - - -
29/05:30am 20.2 ESE 6 11 1017.0 - - - - - - - - -
29/05:00am 19.7 SE 8 12 1016.7 - - - - - - - - -
29/04:30am 20.3 SSE 14 15 1016.8 - - - - - - - - -
29/04:00am 20.1 S 11 13 1016.6 - - - - - - - - -
29/03:30am 20.3 SSE 10 12 1017.0 - - - - - - - - -
29/03:00am 19.4 S 9 10 1017.0 - - - - - - - - -
29/02:30am 19.5 S 10 11 1017.2 - - - - - - - - -
29/02:00am 19.7 SSW 12 13 1017.4 - - - - - - - - -
29/01:30am 19.8 SSW 8 10 1017.9 - - - - - - - - -
29/01:00am 19.6 SSW 10 11 1017.7 - - - - - - - - -
29/12:30am 20.0 SSW 12 13 1017.9 - - - - - - - - -
29/12:00am 20.2 SSW 10 11 1018.0 - - - - - - - - -
 
Date/Time
WST
Temp

°C
Wind Pressure Rain
since 9am
mm
Weather Cloud Vis
km
Sea
Height
m
Swell
Dir
 
Speed
knots
Gust
knots
hPa Trend Height
m
Period
s
Dir
28/11:30pm 20.2 SSW 10 11 1018.3 - - - - - - - - -
28/11:00pm 20.4 SSW 10 12 1018.3 - - - - - - - - -
28/10:30pm 20.6 SW 10 11 1018.4 - - - - - - - - -
28/10:00pm 20.6 SW 11 12 1018.3 - - - - - - - - -
28/09:30pm 20.5 SW 11 12 1018.3 - - - - - - - - -
28/09:00pm 20.4 SW 10 10 1018.3 - - - - - - - - -
28/08:30pm 20.5 SW 9 10 1018.3 - - - - - - - - -
28/08:00pm 20.1 SW 8 9 1018.3 - - - - - - - - -
28/07:30pm 20.2 SW 8 9 1018.1 - - - - - - - - -
28/07:00pm 21.4 W 6 7 1017.6 - - - - - - - - -
28/06:30pm 21.9 WNW 6 7 1017.6 - - - - - - - - -
28/06:00pm 22.0 W 6 7 1017.2 - - - - - - - - -
28/05:30pm 23.1 W 6 7 1017.0 - - - - - - - - -
28/05:00pm 24.0 W 7 8 1016.6 - - - - - - - - -
28/04:30pm 25.0 WNW 4 5 1016.7 - - - - - - - - -
28/04:00pm 24.4 NNW 5 6 1016.6 - - - - - - - - -
28/03:30pm 24.7 N 5 6 1016.8 - - - - - - - - -
28/03:00pm 25.6 NNE 4 5 1016.8 - - - - - - - - -
28/02:30pm 25.6 NE 4 5 1017.1 - - - - - - - - -
28/02:00pm 25.2 NE 4 5 1017.4 - - - - - - - - -
28/01:30pm 24.9 NE 4 5 1017.7 - - - - - - - - -
28/01:00pm 25.1 NNE 3 4 1018.2 - - - - - - - - -
28/12:30pm 25.2 NNE 4 4 1018.7 - - - - - - - - -
28/12:00pm 24.6 NE 4 5 1019.1 - - - - - - - - -
28/11:30am 24.1 ENE 4 5 1019.7 - - - - - - - - -
28/11:00am 24.6 ENE 4 5 1019.9 - - - - - - - - -
28/10:30am 26.3 SE 7 9 1020.2 - - - - - - - - -
28/10:00am 25.2 S 5 8 1020.2 - - - - - - - - -
28/09:30am 24.1 S 9 10 1020.0 - - - - - - - - -
28/09:00am 22.6 S 10 11 1019.8 - - - - - - - - -
28/08:30am 20.8 S 10 12 1019.5 - - - - - - - - -
28/08:00am 19.6 SSW 11 13 1019.3 - - - - - - - - -
28/07:30am 18.5 SSW 13 13 1019.1 - - - - - - - - -
28/07:00am 17.4 S 9 11 1019.2 - - - - - - - - -
28/06:30am 17.4 S 8 10 1019.2 - - - - - - - - -
28/06:00am 17.7 S 14 15 1018.4 - - - - - - - - -
28/05:30am 17.5 SSW 11 11 1018.5 - - - - - - - - -
28/05:00am 17.5 SSW 10 11 1018.4 - - - - - - - - -
28/04:30am 18.0 SSW 11 12 1018.3 - - - - - - - - -
28/04:00am 17.6 SW 10 12 1018.3 - - - - - - - - -
28/03:30am 18.3 SSW 11 12 1018.3 - - - - - - - - -
28/03:00am 18.4 SSW 10 11 1018.2 - - - - - - - - -
28/02:30am 18.9 SW 10 11 1018.5 - - - - - - - - -
28/02:00am 19.2 WSW 10 11 1018.7 - - - - - - - - -
28/01:30am 19.4 SW 9 10 1018.8 - - - - - - - - -
28/01:00am 19.9 WSW 11 13 1019.1 - - - - - - - - -
28/12:30am 19.4 W 9 11 1019.6 - - - - - - - - -
28/12:00am 18.9 WSW 8 9 1019.6 - - - - - - - - -
 
Date/Time
WST
Temp

°C
Wind Pressure Rain
since 9am
mm
Weather Cloud Vis
km
Sea
Height
m
Swell
Dir
 
Speed
knots
Gust
knots
hPa Trend Height
m
Period
s
Dir
27/11:30pm 19.3 SW 6 7 1019.7 - - - - - - - - -
27/11:00pm 19.7 SSW 5 6 1019.9 - - - - - - - - -
27/10:30pm 20.4 SW 3 5 1019.8 - - - - - - - - -
27/10:00pm 20.2 SW 4 7 1019.8 - - - - - - - - -
27/09:30pm 19.6 SSW 6 6 1019.8 - - - - - - - - -
27/09:00pm 19.4 SW 8 9 1019.6 - - - - - - - - -
27/08:30pm 19.8 SW 6 7 1019.7 - - - - - - - - -
27/08:00pm 19.9 WSW 6 6 1019.5 - - - - - - - - -
27/07:30pm 20.2 WSW 6 7 1019.5 - - - - - - - - -
27/07:00pm 20.3 WSW 5 6 1019.1 - - - - - - - - -
27/06:30pm 20.4 W 6 7 1018.8 - - - - - - - - -
27/06:00pm 21.3 W 5 7 1018.6 - - - - - - - - -
27/05:30pm 23.2 NW 2 3 1018.5 - - - - - - - - -
27/05:00pm 23.8 NNE 2 3 1018.3 - - - - - - - - -
27/04:30pm 24.2 NNE 2 3 1018.3 - - - - - - - - -
27/04:00pm 24.4 ENE 2 3 1018.1 - - - - - - - - -
27/03:30pm 23.7 E 2 3 1018.2 - - - - - - - - -
27/03:00pm 24.0 NE 3 5 1018.1 - - - - - - - - -
27/02:30pm 24.3 ENE 5 6 1018.3 - - - - - - - - -
27/02:00pm 24.4 E 7 8 1018.4 - - - - - - - - -
27/01:30pm 24.0 ENE 5 7 1018.9 - - - - - - - - -

Other Formats:

Comma delimited format used in spreadsheet applications
http://www.bom.gov.au/fwo/IDW60701/IDW60701.94307.axf

JavaScript Object Notation format (JSON) in row-major order
http://www.bom.gov.au/fwo/IDW60701/IDW60701.94307.json